Hawick, United Kingdom
Current Conditions -  °F | °C
As of 12:50 AM on Wednesday 22 Oct 2014 (Local Time) from EGOM Reporting Station
Scattered Clouds Scattered Clouds  
Wind Chill: 32°   Ceiling: Unl
Heat Index: 41°   Visibility: 6mi
Dew Point: 37°   Wind: 17mph
Humidity: 87%   Direction: 260°W
Pressure: 29.97"   Gusts: NA
Location:  55.42°N, 2.79°W
Report Text: EGOM 212350Z AUTO 26015KT 9999 SCT025/// 05/03 Q1015
Loading
Personal Weather Stations






























Interactive Weather Map
Tropical Storm Tracking
New forecast layout! Learn more

10-Day Weather Forecast

Advertisements
Track Severe Weather on mobile